createdAt,value
2018-12-10T00:08:18.144Z,68.1
2018-12-10T00:23:23.994Z,70
2018-12-10T00:38:43.362Z,68
2018-12-10T00:53:56.266Z,68.7
2018-12-10T01:09:08.805Z,72.4
2018-12-10T01:24:21.734Z,75.2
2018-12-10T01:39:34.106Z,73.3
2018-12-10T01:54:46.872Z,69.3
2018-12-10T02:09:59.820Z,65.7
2018-12-10T02:25:12.464Z,65.2
2018-12-10T02:40:19.325Z,65.7
2018-12-10T02:55:37.848Z,67.1
2018-12-10T03:10:50.456Z,70.6
2018-12-10T03:26:02.761Z,73
2018-12-10T03:41:15.401Z,76.8
2018-12-10T03:56:27.830Z,79.2
2018-12-10T04:11:40.401Z,81.5
2018-12-10T04:26:52.811Z,79.7
2018-12-10T04:42:04.993Z,80.3
2018-12-10T04:57:12.437Z,80.6
2018-12-10T05:12:29.606Z,78
2018-12-10T05:27:41.639Z,78.6
2018-12-10T05:42:54.175Z,78.9
2018-12-10T05:58:06.298Z,79.2
2018-12-10T06:13:18.577Z,80.4
2018-12-10T06:28:30.628Z,83.4
2018-12-10T06:43:42.719Z,83.9
2018-12-10T06:58:54.880Z,84.3
2018-12-10T07:14:04.373Z,82.5
2018-12-10T07:29:19.122Z,83.7
2018-12-10T07:44:31.109Z,84.4
2018-12-10T07:59:43.181Z,81.7
2018-12-10T08:14:46.805Z,79.4
2018-12-10T08:30:07.654Z,77.6
2018-12-10T08:45:19.965Z,75.3
2018-12-10T09:00:32.365Z,78.1
2018-12-10T09:15:44.491Z,80.2
2018-12-10T09:30:55.954Z,77.8
2018-12-10T09:46:09.165Z,76.3
2018-12-10T10:01:21.342Z,75.2
2018-12-10T10:16:33.716Z,72.8
2018-12-10T10:31:39.337Z,70.8
2018-12-10T10:46:58.840Z,65.3
2018-12-10T11:02:12.363Z,56.7
2018-12-10T11:17:26.652Z,52.6
2018-12-10T11:32:40.826Z,57
2018-12-10T11:47:50.516Z,62
2018-12-10T12:03:06.415Z,65.5
2018-12-10T12:18:20.280Z,64.1
2018-12-10T12:33:31.970Z,60.1
2018-12-10T12:48:34.695Z,61.7
2018-12-10T13:03:59.227Z,62.4
2018-12-10T13:19:09.697Z,60.5
2018-12-10T13:34:22.179Z,58.8
2018-12-10T13:49:34.843Z,57.9
2018-12-10T14:04:44.846Z,58
2018-12-10T14:20:00.173Z,57.2
2018-12-10T14:35:12.791Z,62.1
2018-12-10T14:50:24.971Z,65.2
2018-12-10T15:05:28.244Z,67.8
2018-12-10T15:20:49.488Z,67.2
2018-12-10T15:36:01.690Z,65.2
2018-12-10T15:51:13.985Z,64
2018-12-10T16:06:26.239Z,63.7
2018-12-10T16:21:37.851Z,65.8
2018-12-10T16:36:53.861Z,65.8
2018-12-10T16:52:02.912Z,66.6
2018-12-10T17:07:15.129Z,67.3
2018-12-10T17:22:19.917Z,68.5
2018-12-10T17:37:39.475Z,69.7
2018-12-10T17:52:51.474Z,71.7
2018-12-10T18:08:03.585Z,73.2
2018-12-10T18:23:15.634Z,75.9
2018-12-10T18:38:27.442Z,78.1
2018-12-10T18:53:39.314Z,78.8
2018-12-10T19:08:51.051Z,82.1
2018-12-10T19:24:02.925Z,82.3
2018-12-10T19:39:09.146Z,81
2018-12-10T19:54:26.338Z,79.6
2018-12-10T20:09:38.459Z,79
2018-12-10T20:24:50.194Z,81.2
2018-12-10T20:40:02.119Z,83.4
2018-12-10T20:55:13.763Z,83.1
2018-12-10T21:10:25.461Z,82
2018-12-10T21:25:37.302Z,81.4
2018-12-10T21:40:49.106Z,80.8
2018-12-10T21:55:57.569Z,80.5
2018-12-10T22:11:13.427Z,78.9
2018-12-10T22:26:25.000Z,77.8
2018-12-10T22:41:36.911Z,81
2018-12-10T22:53:57.812Z,84
2018-12-10T23:09:09.722Z,80.5
2018-12-10T23:24:21.786Z,82.5
2018-12-10T23:39:33.690Z,82.8
2018-12-10T23:54:45.758Z,82.6
